sensor_id;sensor_type;location;lat;lon;timestamp;P1;durP1;ratioP1;P2;durP2;ratioP2
76348;SDS011;65172;46.764;15.406;2023-06-22T00:01:54;28.85;;;14.65;;
76348;SDS011;65172;46.764;15.406;2023-06-22T00:04:20;22.58;;;13.32;;
76348;SDS011;65172;46.764;15.406;2023-06-22T00:06:45;24.55;;;14.32;;
76348;SDS011;65172;46.764;15.406;2023-06-22T00:09:11;27.60;;;14.45;;
76348;SDS011;65172;46.764;15.406;2023-06-22T00:11:37;26.17;;;14.63;;
76348;SDS011;65172;46.764;15.406;2023-06-22T00:14:03;31.05;;;15.98;;
76348;SDS011;65172;46.764;15.406;2023-06-22T00:16:29;29.30;;;17.60;;
76348;SDS011;65172;46.764;15.406;2023-06-22T00:18:56;24.80;;;15.57;;
76348;SDS011;65172;46.764;15.406;2023-06-22T00:21:26;25.30;;;14.70;;
76348;SDS011;65172;46.764;15.406;2023-06-22T00:23:52;28.23;;;17.25;;
76348;SDS011;65172;46.764;15.406;2023-06-22T00:26:17;27.60;;;17.38;;
76348;SDS011;65172;46.764;15.406;2023-06-22T00:28:43;29.55;;;18.35;;
76348;SDS011;65172;46.764;15.406;2023-06-22T00:31:08;31.92;;;17.95;;
76348;SDS011;65172;46.764;15.406;2023-06-22T00:33:34;30.95;;;17.70;;
76348;SDS011;65172;46.764;15.406;2023-06-22T00:36:00;39.17;;;18.30;;
76348;SDS011;65172;46.764;15.406;2023-06-22T00:38:25;24.15;;;16.90;;
76348;SDS011;65172;46.764;15.406;2023-06-22T00:40:51;25.75;;;16.70;;
76348;SDS011;65172;46.764;15.406;2023-06-22T00:43:17;29.63;;;15.70;;
76348;SDS011;65172;46.764;15.406;2023-06-22T00:45:42;23.42;;;15.68;;
76348;SDS011;65172;46.764;15.406;2023-06-22T00:48:08;25.25;;;16.63;;
76348;SDS011;65172;46.764;15.406;2023-06-22T00:50:33;25.67;;;16.05;;
76348;SDS011;65172;46.764;15.406;2023-06-22T00:53:00;25.67;;;15.88;;
76348;SDS011;65172;46.764;15.406;2023-06-22T00:55:33;25.92;;;15.95;;
76348;SDS011;65172;46.764;15.406;2023-06-22T00:58:02;24.45;;;15.00;;
76348;SDS011;65172;46.764;15.406;2023-06-22T01:00:33;28.48;;;17.73;;
76348;SDS011;65172;46.764;15.406;2023-06-22T01:02:58;30.00;;;17.05;;
76348;SDS011;65172;46.764;15.406;2023-06-22T01:05:24;28.00;;;16.42;;
76348;SDS011;65172;46.764;15.406;2023-06-22T01:10:29;25.50;;;14.55;;
76348;SDS011;65172;46.764;15.406;2023-06-22T01:13:08;20.27;;;12.77;;
76348;SDS011;65172;46.764;15.406;2023-06-22T01:15:51;26.67;;;12.35;;
76348;SDS011;65172;46.764;15.406;2023-06-22T01:18:21;23.05;;;12.63;;
76348;SDS011;65172;46.764;15.406;2023-06-22T01:20:51;21.55;;;13.00;;
76348;SDS011;65172;46.764;15.406;2023-06-22T01:26:19;19.98;;;12.32;;
76348;SDS011;65172;46.764;15.406;2023-06-22T01:28:52;24.90;;;12.40;;
76348;SDS011;65172;46.764;15.406;2023-06-22T01:31:20;22.23;;;11.57;;
76348;SDS011;65172;46.764;15.406;2023-06-22T01:33:55;25.38;;;13.13;;
76348;SDS011;65172;46.764;15.406;2023-06-22T01:36:23;23.20;;;10.82;;
76348;SDS011;65172;46.764;15.406;2023-06-22T01:38:49;22.83;;;12.52;;
76348;SDS011;65172;46.764;15.406;2023-06-22T01:41:19;24.42;;;11.40;;
76348;SDS011;65172;46.764;15.406;2023-06-22T01:43:45;24.27;;;12.80;;
76348;SDS011;65172;46.764;15.406;2023-06-22T01:46:11;26.08;;;13.18;;
76348;SDS011;65172;46.764;15.406;2023-06-22T01:48:37;25.88;;;12.63;;
76348;SDS011;65172;46.764;15.406;2023-06-22T01:51:04;17.98;;;13.13;;
76348;SDS011;65172;46.764;15.406;2023-06-22T01:53:29;21.40;;;12.90;;
76348;SDS011;65172;46.764;15.406;2023-06-22T01:58:30;26.85;;;17.60;;
76348;SDS011;65172;46.764;15.406;2023-06-22T02:01:10;24.00;;;16.08;;
76348;SDS011;65172;46.764;15.406;2023-06-22T02:03:38;21.45;;;14.93;;
76348;SDS011;65172;46.764;15.406;2023-06-22T02:06:30;48.30;;;18.17;;
76348;SDS011;65172;46.764;15.406;2023-06-22T02:09:01;22.13;;;16.05;;
76348;SDS011;65172;46.764;15.406;2023-06-22T02:11:27;24.17;;;16.23;;
76348;SDS011;65172;46.764;15.406;2023-06-22T02:13:54;21.30;;;15.40;;
76348;SDS011;65172;46.764;15.406;2023-06-22T02:16:21;24.65;;;15.30;;
76348;SDS011;65172;46.764;15.406;2023-06-22T02:18:47;26.83;;;15.65;;
76348;SDS011;65172;46.764;15.406;2023-06-22T02:21:15;23.15;;;15.75;;
76348;SDS011;65172;46.764;15.406;2023-06-22T02:23:42;22.42;;;16.67;;
76348;SDS011;65172;46.764;15.406;2023-06-22T02:26:07;19.42;;;14.98;;
76348;SDS011;65172;46.764;15.406;2023-06-22T02:28:33;23.67;;;16.60;;
76348;SDS011;65172;46.764;15.406;2023-06-22T02:30:58;23.85;;;17.13;;
76348;SDS011;65172;46.764;15.406;2023-06-22T02:33:24;32.10;;;17.45;;
76348;SDS011;65172;46.764;15.406;2023-06-22T02:35:49;308.70;;;23.42;;
76348;SDS011;65172;46.764;15.406;2023-06-22T02:38:15;81.85;;;20.95;;
76348;SDS011;65172;46.764;15.406;2023-06-22T02:40:40;27.98;;;17.58;;
76348;SDS011;65172;46.764;15.406;2023-06-22T02:43:06;22.63;;;16.17;;
76348;SDS011;65172;46.764;15.406;2023-06-22T02:45:31;23.80;;;14.27;;
76348;SDS011;65172;46.764;15.406;2023-06-22T02:47:57;20.27;;;13.60;;
76348;SDS011;65172;46.764;15.406;2023-06-22T02:50:23;26.67;;;14.98;;
76348;SDS011;65172;46.764;15.406;2023-06-22T02:52:48;24.42;;;14.43;;
76348;SDS011;65172;46.764;15.406;2023-06-22T02:55:14;21.05;;;15.18;;
76348;SDS011;65172;46.764;15.406;2023-06-22T02:57:39;23.15;;;16.92;;
76348;SDS011;65172;46.764;15.406;2023-06-22T03:00:09;26.95;;;16.15;;
76348;SDS011;65172;46.764;15.406;2023-06-22T03:02:46;29.17;;;16.52;;
76348;SDS011;65172;46.764;15.406;2023-06-22T03:05:12;24.30;;;15.60;;
76348;SDS011;65172;46.764;15.406;2023-06-22T03:07:43;26.42;;;15.43;;
76348;SDS011;65172;46.764;15.406;2023-06-22T03:10:09;21.30;;;13.38;;
76348;SDS011;65172;46.764;15.406;2023-06-22T03:12:36;25.35;;;15.55;;
76348;SDS011;65172;46.764;15.406;2023-06-22T03:15:04;22.65;;;16.17;;
76348;SDS011;65172;46.764;15.406;2023-06-22T03:17:30;30.33;;;16.77;;
76348;SDS011;65172;46.764;15.406;2023-06-22T03:19:56;23.13;;;16.00;;
76348;SDS011;65172;46.764;15.406;2023-06-22T03:22:21;22.10;;;16.52;;
76348;SDS011;65172;46.764;15.406;2023-06-22T03:24:47;21.75;;;16.10;;
76348;SDS011;65172;46.764;15.406;2023-06-22T03:27:12;31.50;;;17.02;;
76348;SDS011;65172;46.764;15.406;2023-06-22T03:29:38;28.15;;;16.70;;
76348;SDS011;65172;46.764;15.406;2023-06-22T03:32:04;29.95;;;18.50;;
76348;SDS011;65172;46.764;15.406;2023-06-22T03:34:31;27.73;;;16.42;;
76348;SDS011;65172;46.764;15.406;2023-06-22T03:36:58;29.55;;;16.88;;
76348;SDS011;65172;46.764;15.406;2023-06-22T03:39:24;21.67;;;13.50;;
76348;SDS011;65172;46.764;15.406;2023-06-22T03:41:50;18.10;;;12.85;;
76348;SDS011;65172;46.764;15.406;2023-06-22T03:44:15;21.75;;;13.35;;
76348;SDS011;65172;46.764;15.406;2023-06-22T03:46:40;19.75;;;13.63;;
76348;SDS011;65172;46.764;15.406;2023-06-22T03:49:06;20.60;;;12.93;;
76348;SDS011;65172;46.764;15.406;2023-06-22T03:51:32;25.17;;;12.57;;
76348;SDS011;65172;46.764;15.406;2023-06-22T03:54:01;21.13;;;13.25;;
76348;SDS011;65172;46.764;15.406;2023-06-22T03:56:26;21.38;;;13.25;;
76348;SDS011;65172;46.764;15.406;2023-06-22T03:58:51;20.63;;;12.38;;
76348;SDS011;65172;46.764;15.406;2023-06-22T04:01:17;21.38;;;12.93;;
76348;SDS011;65172;46.764;15.406;2023-06-22T04:03:43;20.50;;;12.70;;
76348;SDS011;65172;46.764;15.406;2023-06-22T04:06:08;22.83;;;12.73;;
76348;SDS011;65172;46.764;15.406;2023-06-22T04:08:34;25.67;;;14.45;;
76348;SDS011;65172;46.764;15.406;2023-06-22T04:11:00;25.65;;;13.55;;
76348;SDS011;65172;46.764;15.406;2023-06-22T04:13:25;24.67;;;15.32;;
76348;SDS011;65172;46.764;15.406;2023-06-22T04:15:51;24.30;;;16.00;;
76348;SDS011;65172;46.764;15.406;2023-06-22T04:18:16;26.38;;;16.92;;
76348;SDS011;65172;46.764;15.406;2023-06-22T04:20:42;21.02;;;14.00;;
76348;SDS011;65172;46.764;15.406;2023-06-22T04:23:07;32.72;;;16.20;;
76348;SDS011;65172;46.764;15.406;2023-06-22T04:25:33;24.33;;;15.52;;
76348;SDS011;65172;46.764;15.406;2023-06-22T04:27:58;28.15;;;15.10;;
76348;SDS011;65172;46.764;15.406;2023-06-22T04:30:24;24.65;;;16.17;;
76348;SDS011;65172;46.764;15.406;2023-06-22T04:32:50;26.58;;;15.88;;
76348;SDS011;65172;46.764;15.406;2023-06-22T04:35:21;32.15;;;14.75;;
76348;SDS011;65172;46.764;15.406;2023-06-22T04:37:50;20.67;;;13.25;;
76348;SDS011;65172;46.764;15.406;2023-06-22T04:40:21;21.42;;;15.27;;
76348;SDS011;65172;46.764;15.406;2023-06-22T04:42:47;59.45;;;18.63;;
76348;SDS011;65172;46.764;15.406;2023-06-22T04:45:18;25.40;;;16.02;;
76348;SDS011;65172;46.764;15.406;2023-06-22T04:47:44;29.60;;;16.15;;
76348;SDS011;65172;46.764;15.406;2023-06-22T04:50:13;20.88;;;14.70;;
76348;SDS011;65172;46.764;15.406;2023-06-22T04:52:39;22.45;;;14.63;;
76348;SDS011;65172;46.764;15.406;2023-06-22T04:55:04;18.60;;;14.63;;
76348;SDS011;65172;46.764;15.406;2023-06-22T04:57:30;26.30;;;16.95;;
76348;SDS011;65172;46.764;15.406;2023-06-22T05:00:01;23.10;;;15.73;;
76348;SDS011;65172;46.764;15.406;2023-06-22T05:02:37;21.52;;;15.45;;
76348;SDS011;65172;46.764;15.406;2023-06-22T05:05:06;25.95;;;17.02;;
76348;SDS011;65172;46.764;15.406;2023-06-22T05:07:35;32.10;;;17.48;;
76348;SDS011;65172;46.764;15.406;2023-06-22T05:10:02;29.15;;;17.40;;
76348;SDS011;65172;46.764;15.406;2023-06-22T05:12:28;26.08;;;17.65;;
76348;SDS011;65172;46.764;15.406;2023-06-22T05:14:54;23.20;;;15.70;;
76348;SDS011;65172;46.764;15.406;2023-06-22T05:17:20;25.75;;;16.40;;
76348;SDS011;65172;46.764;15.406;2023-06-22T05:19:46;26.48;;;14.90;;
76348;SDS011;65172;46.764;15.406;2023-06-22T05:22:14;22.05;;;14.45;;
76348;SDS011;65172;46.764;15.406;2023-06-22T05:24:42;23.80;;;14.55;;
76348;SDS011;65172;46.764;15.406;2023-06-22T05:27:08;21.50;;;14.98;;
76348;SDS011;65172;46.764;15.406;2023-06-22T05:29:33;20.38;;;12.63;;
76348;SDS011;65172;46.764;15.406;2023-06-22T05:32:00;26.15;;;14.57;;
76348;SDS011;65172;46.764;15.406;2023-06-22T05:34:26;24.33;;;13.50;;
76348;SDS011;65172;46.764;15.406;2023-06-22T05:36:51;25.20;;;14.27;;
76348;SDS011;65172;46.764;15.406;2023-06-22T05:39:17;26.25;;;13.68;;
76348;SDS011;65172;46.764;15.406;2023-06-22T05:41:42;24.52;;;13.00;;
76348;SDS011;65172;46.764;15.406;2023-06-22T05:44:09;28.65;;;13.93;;
76348;SDS011;65172;46.764;15.406;2023-06-22T05:46:35;30.13;;;14.18;;
76348;SDS011;65172;46.764;15.406;2023-06-22T05:49:01;20.67;;;13.00;;
76348;SDS011;65172;46.764;15.406;2023-06-22T05:51:26;24.77;;;14.57;;
76348;SDS011;65172;46.764;15.406;2023-06-22T05:53:52;24.83;;;12.73;;
76348;SDS011;65172;46.764;15.406;2023-06-22T05:56:17;18.08;;;11.23;;
76348;SDS011;65172;46.764;15.406;2023-06-22T05:58:43;25.35;;;11.63;;
76348;SDS011;65172;46.764;15.406;2023-06-22T06:01:08;22.33;;;11.75;;
76348;SDS011;65172;46.764;15.406;2023-06-22T06:03:34;23.70;;;10.90;;
76348;SDS011;65172;46.764;15.406;2023-06-22T06:06:06;22.63;;;10.70;;
76348;SDS011;65172;46.764;15.406;2023-06-22T06:08:32;19.52;;;10.90;;
76348;SDS011;65172;46.764;15.406;2023-06-22T06:10:57;19.98;;;10.40;;
76348;SDS011;65172;46.764;15.406;2023-06-22T06:13:23;18.55;;;10.65;;
76348;SDS011;65172;46.764;15.406;2023-06-22T06:15:48;19.02;;;10.23;;
76348;SDS011;65172;46.764;15.406;2023-06-22T06:18:16;22.33;;;11.55;;
76348;SDS011;65172;46.764;15.406;2023-06-22T06:20:42;19.92;;;10.77;;
76348;SDS011;65172;46.764;15.406;2023-06-22T06:23:08;22.77;;;10.25;;
76348;SDS011;65172;46.764;15.406;2023-06-22T06:25:33;24.60;;;9.55;;
76348;SDS011;65172;46.764;15.406;2023-06-22T06:27:59;18.15;;;10.27;;
76348;SDS011;65172;46.764;15.406;2023-06-22T06:30:24;27.42;;;10.20;;
76348;SDS011;65172;46.764;15.406;2023-06-22T06:32:50;19.80;;;9.63;;
76348;SDS011;65172;46.764;15.406;2023-06-22T06:35:16;18.60;;;10.80;;
76348;SDS011;65172;46.764;15.406;2023-06-22T06:37:42;20.80;;;9.73;;
76348;SDS011;65172;46.764;15.406;2023-06-22T06:40:09;21.65;;;9.45;;
76348;SDS011;65172;46.764;15.406;2023-06-22T06:42:39;19.48;;;9.55;;
76348;SDS011;65172;46.764;15.406;2023-06-22T06:45:07;23.05;;;10.38;;
76348;SDS011;65172;46.764;15.406;2023-06-22T06:47:33;19.90;;;10.38;;
76348;SDS011;65172;46.764;15.406;2023-06-22T06:49:59;17.42;;;9.95;;
76348;SDS011;65172;46.764;15.406;2023-06-22T06:52:25;25.15;;;10.43;;
76348;SDS011;65172;46.764;15.406;2023-06-22T06:54:51;17.40;;;10.48;;
76348;SDS011;65172;46.764;15.406;2023-06-22T06:57:17;19.08;;;10.80;;
76348;SDS011;65172;46.764;15.406;2023-06-22T06:59:43;17.67;;;11.18;;
76348;SDS011;65172;46.764;15.406;2023-06-22T07:02:08;19.25;;;10.10;;
76348;SDS011;65172;46.764;15.406;2023-06-22T07:04:34;21.50;;;10.32;;
76348;SDS011;65172;46.764;15.406;2023-06-22T07:07:00;21.95;;;10.48;;
76348;SDS011;65172;46.764;15.406;2023-06-22T07:09:27;21.73;;;10.30;;
76348;SDS011;65172;46.764;15.406;2023-06-22T07:11:52;20.52;;;9.57;;
76348;SDS011;65172;46.764;15.406;2023-06-22T07:14:18;23.55;;;10.75;;
76348;SDS011;65172;46.764;15.406;2023-06-22T07:16:43;18.50;;;11.00;;
76348;SDS011;65172;46.764;15.406;2023-06-22T07:19:10;20.48;;;10.48;;
76348;SDS011;65172;46.764;15.406;2023-06-22T07:21:36;26.35;;;10.88;;
76348;SDS011;65172;46.764;15.406;2023-06-22T07:24:02;25.67;;;10.80;;
76348;SDS011;65172;46.764;15.406;2023-06-22T07:26:28;18.73;;;10.40;;
76348;SDS011;65172;46.764;15.406;2023-06-22T07:28:53;19.92;;;10.50;;
76348;SDS011;65172;46.764;15.406;2023-06-22T07:31:19;20.00;;;10.43;;
76348;SDS011;65172;46.764;15.406;2023-06-22T07:33:44;20.55;;;9.93;;
76348;SDS011;65172;46.764;15.406;2023-06-22T07:36:10;15.75;;;9.75;;
76348;SDS011;65172;46.764;15.406;2023-06-22T07:38:35;17.83;;;10.00;;
76348;SDS011;65172;46.764;15.406;2023-06-22T07:41:01;17.52;;;10.25;;
76348;SDS011;65172;46.764;15.406;2023-06-22T07:43:30;18.70;;;10.48;;
76348;SDS011;65172;46.764;15.406;2023-06-22T07:45:58;21.90;;;10.45;;
76348;SDS011;65172;46.764;15.406;2023-06-22T07:48:23;23.27;;;11.13;;
76348;SDS011;65172;46.764;15.406;2023-06-22T07:50:49;18.45;;;9.23;;
76348;SDS011;65172;46.764;15.406;2023-06-22T07:53:14;16.08;;;10.05;;
76348;SDS011;65172;46.764;15.406;2023-06-22T07:55:40;21.20;;;10.65;;
76348;SDS011;65172;46.764;15.406;2023-06-22T07:58:05;21.25;;;10.93;;
76348;SDS011;65172;46.764;15.406;2023-06-22T08:00:33;22.77;;;10.15;;
76348;SDS011;65172;46.764;15.406;2023-06-22T08:02:59;19.67;;;10.52;;
76348;SDS011;65172;46.764;15.406;2023-06-22T08:05:24;18.73;;;10.27;;
76348;SDS011;65172;46.764;15.406;2023-06-22T08:07:50;20.40;;;10.60;;
76348;SDS011;65172;46.764;15.406;2023-06-22T08:10:15;21.08;;;10.45;;
76348;SDS011;65172;46.764;15.406;2023-06-22T08:12:41;17.25;;;10.07;;
76348;SDS011;65172;46.764;15.406;2023-06-22T08:15:07;17.27;;;10.68;;
76348;SDS011;65172;46.764;15.406;2023-06-22T08:17:33;19.27;;;10.07;;
76348;SDS011;65172;46.764;15.406;2023-06-22T08:19:59;23.40;;;10.38;;
76348;SDS011;65172;46.764;15.406;2023-06-22T08:22:24;17.55;;;9.68;;
76348;SDS011;65172;46.764;15.406;2023-06-22T08:24:50;22.58;;;11.05;;
76348;SDS011;65172;46.764;15.406;2023-06-22T08:27:15;18.10;;;10.93;;
76348;SDS011;65172;46.764;15.406;2023-06-22T08:29:43;18.42;;;10.48;;
76348;SDS011;65172;46.764;15.406;2023-06-22T08:32:10;21.25;;;11.38;;
76348;SDS011;65172;46.764;15.406;2023-06-22T08:34:37;25.15;;;9.98;;
76348;SDS011;65172;46.764;15.406;2023-06-22T08:37:02;19.13;;;10.80;;
76348;SDS011;65172;46.764;15.406;2023-06-22T08:39:31;20.27;;;11.50;;
76348;SDS011;65172;46.764;15.406;2023-06-22T08:41:59;22.50;;;10.77;;
76348;SDS011;65172;46.764;15.406;2023-06-22T08:44:25;20.83;;;10.55;;
76348;SDS011;65172;46.764;15.406;2023-06-22T08:46:50;26.80;;;11.05;;
76348;SDS011;65172;46.764;15.406;2023-06-22T08:49:16;20.38;;;10.00;;
76348;SDS011;65172;46.764;15.406;2023-06-22T08:51:41;21.67;;;11.40;;
76348;SDS011;65172;46.764;15.406;2023-06-22T08:54:07;20.90;;;10.55;;
76348;SDS011;65172;46.764;15.406;2023-06-22T08:56:32;24.40;;;10.75;;
76348;SDS011;65172;46.764;15.406;2023-06-22T08:58:59;20.85;;;10.57;;
76348;SDS011;65172;46.764;15.406;2023-06-22T09:01:25;18.10;;;11.25;;
76348;SDS011;65172;46.764;15.406;2023-06-22T09:03:51;21.95;;;11.15;;
76348;SDS011;65172;46.764;15.406;2023-06-22T09:06:21;20.85;;;10.63;;
76348;SDS011;65172;46.764;15.406;2023-06-22T09:08:46;18.70;;;10.63;;
76348;SDS011;65172;46.764;15.406;2023-06-22T09:11:12;22.15;;;11.43;;
76348;SDS011;65172;46.764;15.406;2023-06-22T09:13:38;19.73;;;11.40;;
76348;SDS011;65172;46.764;15.406;2023-06-22T09:16:03;18.90;;;10.70;;
76348;SDS011;65172;46.764;15.406;2023-06-22T09:18:29;24.40;;;11.70;;
76348;SDS011;65172;46.764;15.406;2023-06-22T09:20:55;20.42;;;11.73;;
76348;SDS011;65172;46.764;15.406;2023-06-22T09:23:20;17.10;;;11.40;;
76348;SDS011;65172;46.764;15.406;2023-06-22T09:25:46;23.88;;;12.68;;
76348;SDS011;65172;46.764;15.406;2023-06-22T09:28:13;19.38;;;11.93;;
76348;SDS011;65172;46.764;15.406;2023-06-22T09:30:39;23.02;;;11.85;;
76348;SDS011;65172;46.764;15.406;2023-06-22T09:33:04;18.95;;;12.75;;
76348;SDS011;65172;46.764;15.406;2023-06-22T09:35:30;19.13;;;12.52;;
76348;SDS011;65172;46.764;15.406;2023-06-22T09:37:55;19.40;;;11.50;;
76348;SDS011;65172;46.764;15.406;2023-06-22T09:40:21;22.90;;;12.48;;
76348;SDS011;65172;46.764;15.406;2023-06-22T09:42:46;16.80;;;11.70;;
76348;SDS011;65172;46.764;15.406;2023-06-22T09:45:12;21.08;;;11.15;;
76348;SDS011;65172;46.764;15.406;2023-06-22T09:47:37;20.55;;;11.60;;
76348;SDS011;65172;46.764;15.406;2023-06-22T09:50:03;22.05;;;12.60;;
76348;SDS011;65172;46.764;15.406;2023-06-22T09:52:29;23.40;;;12.82;;
76348;SDS011;65172;46.764;15.406;2023-06-22T09:54:55;24.05;;;12.23;;
76348;SDS011;65172;46.764;15.406;2023-06-22T09:57:20;24.65;;;12.73;;
76348;SDS011;65172;46.764;15.406;2023-06-22T09:59:46;21.58;;;12.52;;
76348;SDS011;65172;46.764;15.406;2023-06-22T10:02:12;19.52;;;13.27;;
76348;SDS011;65172;46.764;15.406;2023-06-22T10:04:38;24.40;;;12.63;;
76348;SDS011;65172;46.764;15.406;2023-06-22T10:07:05;18.52;;;11.52;;
76348;SDS011;65172;46.764;15.406;2023-06-22T10:09:31;22.02;;;12.52;;
76348;SDS011;65172;46.764;15.406;2023-06-22T10:11:56;22.67;;;11.95;;
76348;SDS011;65172;46.764;15.406;2023-06-22T10:14:22;23.45;;;12.70;;
76348;SDS011;65172;46.764;15.406;2023-06-22T10:16:48;23.65;;;12.13;;
76348;SDS011;65172;46.764;15.406;2023-06-22T10:19:13;23.20;;;13.10;;
76348;SDS011;65172;46.764;15.406;2023-06-22T10:21:38;22.02;;;13.80;;
76348;SDS011;65172;46.764;15.406;2023-06-22T10:24:04;22.75;;;13.00;;
76348;SDS011;65172;46.764;15.406;2023-06-22T10:26:33;20.35;;;13.43;;
76348;SDS011;65172;46.764;15.406;2023-06-22T10:28:59;20.90;;;13.48;;
76348;SDS011;65172;46.764;15.406;2023-06-22T10:31:25;23.10;;;13.20;;
76348;SDS011;65172;46.764;15.406;2023-06-22T10:33:52;22.77;;;12.60;;
76348;SDS011;65172;46.764;15.406;2023-06-22T10:36:18;24.05;;;12.40;;
76348;SDS011;65172;46.764;15.406;2023-06-22T10:38:44;23.85;;;13.70;;
76348;SDS011;65172;46.764;15.406;2023-06-22T10:41:10;24.88;;;12.60;;
76348;SDS011;65172;46.764;15.406;2023-06-22T10:43:36;22.13;;;12.88;;
76348;SDS011;65172;46.764;15.406;2023-06-22T10:46:01;18.38;;;12.57;;
76348;SDS011;65172;46.764;15.406;2023-06-22T10:48:27;20.83;;;13.07;;
76348;SDS011;65172;46.764;15.406;2023-06-22T10:50:52;28.42;;;13.23;;
76348;SDS011;65172;46.764;15.406;2023-06-22T10:53:18;22.58;;;13.00;;
76348;SDS011;65172;46.764;15.406;2023-06-22T10:55:44;21.95;;;13.45;;
76348;SDS011;65172;46.764;15.406;2023-06-22T10:58:09;21.10;;;13.18;;
76348;SDS011;65172;46.764;15.406;2023-06-22T11:00:35;22.25;;;13.80;;
76348;SDS011;65172;46.764;15.406;2023-06-22T11:03:00;20.25;;;13.25;;
76348;SDS011;65172;46.764;15.406;2023-06-22T11:05:26;19.85;;;13.70;;
76348;SDS011;65172;46.764;15.406;2023-06-22T11:07:51;26.15;;;14.85;;
76348;SDS011;65172;46.764;15.406;2023-06-22T11:10:18;22.33;;;13.98;;
76348;SDS011;65172;46.764;15.406;2023-06-22T11:12:43;22.15;;;13.60;;
76348;SDS011;65172;46.764;15.406;2023-06-22T11:15:09;21.05;;;13.32;;
76348;SDS011;65172;46.764;15.406;2023-06-22T11:17:35;25.48;;;14.15;;
76348;SDS011;65172;46.764;15.406;2023-06-22T11:20:00;22.35;;;13.68;;
76348;SDS011;65172;46.764;15.406;2023-06-22T11:22:26;21.65;;;14.43;;
76348;SDS011;65172;46.764;15.406;2023-06-22T11:24:52;24.77;;;14.35;;
76348;SDS011;65172;46.764;15.406;2023-06-22T11:27:18;23.90;;;14.63;;
76348;SDS011;65172;46.764;15.406;2023-06-22T11:29:43;22.70;;;13.48;;
76348;SDS011;65172;46.764;15.406;2023-06-22T11:32:09;23.45;;;13.95;;
76348;SDS011;65172;46.764;15.406;2023-06-22T11:34:34;24.52;;;14.30;;
76348;SDS011;65172;46.764;15.406;2023-06-22T11:37:00;22.08;;;14.57;;
76348;SDS011;65172;46.764;15.406;2023-06-22T11:39:26;28.02;;;14.73;;
76348;SDS011;65172;46.764;15.406;2023-06-22T11:41:51;23.23;;;14.27;;
76348;SDS011;65172;46.764;15.406;2023-06-22T11:44:17;24.20;;;14.75;;
76348;SDS011;65172;46.764;15.406;2023-06-22T11:46:42;22.65;;;15.15;;
76348;SDS011;65172;46.764;15.406;2023-06-22T11:49:08;21.00;;;14.35;;
76348;SDS011;65172;46.764;15.406;2023-06-22T11:51:33;20.25;;;14.10;;
76348;SDS011;65172;46.764;15.406;2023-06-22T11:53:59;28.63;;;15.23;;
76348;SDS011;65172;46.764;15.406;2023-06-22T11:56:24;21.30;;;14.55;;
76348;SDS011;65172;46.764;15.406;2023-06-22T11:58:50;23.33;;;14.65;;
76348;SDS011;65172;46.764;15.406;2023-06-22T12:01:15;20.92;;;13.60;;
76348;SDS011;65172;46.764;15.406;2023-06-22T12:03:41;26.58;;;15.98;;
76348;SDS011;65172;46.764;15.406;2023-06-22T12:06:09;23.42;;;14.30;;
76348;SDS011;65172;46.764;15.406;2023-06-22T12:08:34;22.23;;;14.45;;
76348;SDS011;65172;46.764;15.406;2023-06-22T12:11:00;23.05;;;14.02;;
76348;SDS011;65172;46.764;15.406;2023-06-22T12:13:25;23.92;;;14.57;;
76348;SDS011;65172;46.764;15.406;2023-06-22T12:15:51;25.85;;;14.40;;
76348;SDS011;65172;46.764;15.406;2023-06-22T12:18:18;23.95;;;14.32;;
76348;SDS011;65172;46.764;15.406;2023-06-22T12:20:45;21.58;;;13.82;;
76348;SDS011;65172;46.764;15.406;2023-06-22T12:23:11;24.92;;;15.05;;
76348;SDS011;65172;46.764;15.406;2023-06-22T12:25:37;26.55;;;15.20;;
76348;SDS011;65172;46.764;15.406;2023-06-22T12:28:02;20.05;;;13.68;;
76348;SDS011;65172;46.764;15.406;2023-06-22T12:30:29;28.83;;;14.95;;
76348;SDS011;65172;46.764;15.406;2023-06-22T12:32:55;18.90;;;13.73;;
76348;SDS011;65172;46.764;15.406;2023-06-22T12:35:20;23.08;;;14.23;;
76348;SDS011;65172;46.764;15.406;2023-06-22T12:37:46;18.30;;;13.57;;
76348;SDS011;65172;46.764;15.406;2023-06-22T12:40:11;24.98;;;14.50;;
76348;SDS011;65172;46.764;15.406;2023-06-22T12:42:37;20.35;;;13.57;;
76348;SDS011;65172;46.764;15.406;2023-06-22T12:45:03;22.15;;;13.73;;
76348;SDS011;65172;46.764;15.406;2023-06-22T12:47:29;20.92;;;14.75;;
76348;SDS011;65172;46.764;15.406;2023-06-22T12:49:55;20.33;;;13.18;;
76348;SDS011;65172;46.764;15.406;2023-06-22T12:52:20;24.60;;;13.57;;
76348;SDS011;65172;46.764;15.406;2023-06-22T12:54:46;22.88;;;14.43;;
76348;SDS011;65172;46.764;15.406;2023-06-22T12:57:11;25.58;;;13.65;;
76348;SDS011;65172;46.764;15.406;2023-06-22T12:59:37;20.70;;;14.07;;
76348;SDS011;65172;46.764;15.406;2023-06-22T13:02:02;27.60;;;14.68;;
76348;SDS011;65172;46.764;15.406;2023-06-22T13:04:28;25.58;;;14.00;;
76348;SDS011;65172;46.764;15.406;2023-06-22T13:06:54;25.65;;;14.35;;
76348;SDS011;65172;46.764;15.406;2023-06-22T13:09:19;15.73;;;12.38;;
76348;SDS011;65172;46.764;15.406;2023-06-22T13:11:45;20.33;;;12.93;;
76348;SDS011;65172;46.764;15.406;2023-06-22T13:14:10;22.90;;;14.02;;
76348;SDS011;65172;46.764;15.406;2023-06-22T13:16:36;21.30;;;12.73;;
76348;SDS011;65172;46.764;15.406;2023-06-22T13:19:01;25.50;;;14.43;;
76348;SDS011;65172;46.764;15.406;2023-06-22T13:21:27;19.10;;;13.02;;
76348;SDS011;65172;46.764;15.406;2023-06-22T13:23:53;23.30;;;12.70;;
76348;SDS011;65172;46.764;15.406;2023-06-22T13:26:18;19.40;;;12.90;;
76348;SDS011;65172;46.764;15.406;2023-06-22T13:28:44;22.42;;;12.43;;
76348;SDS011;65172;46.764;15.406;2023-06-22T13:31:09;22.70;;;13.38;;
76348;SDS011;65172;46.764;15.406;2023-06-22T13:33:35;22.42;;;13.15;;
76348;SDS011;65172;46.764;15.406;2023-06-22T13:36:01;21.67;;;12.40;;
76348;SDS011;65172;46.764;15.406;2023-06-22T13:38:28;21.05;;;13.07;;
76348;SDS011;65172;46.764;15.406;2023-06-22T13:40:55;22.42;;;11.45;;
76348;SDS011;65172;46.764;15.406;2023-06-22T13:43:23;18.67;;;12.38;;
76348;SDS011;65172;46.764;15.406;2023-06-22T13:45:49;20.00;;;11.85;;
76348;SDS011;65172;46.764;15.406;2023-06-22T13:48:14;20.17;;;12.48;;
76348;SDS011;65172;46.764;15.406;2023-06-22T13:50:40;19.30;;;11.93;;
76348;SDS011;65172;46.764;15.406;2023-06-22T13:53:05;23.20;;;12.07;;
76348;SDS011;65172;46.764;15.406;2023-06-22T13:55:31;21.25;;;12.73;;
76348;SDS011;65172;46.764;15.406;2023-06-22T13:57:57;21.05;;;12.23;;
76348;SDS011;65172;46.764;15.406;2023-06-22T14:00:23;22.83;;;12.88;;
76348;SDS011;65172;46.764;15.406;2023-06-22T14:02:48;19.02;;;12.20;;
76348;SDS011;65172;46.764;15.406;2023-06-22T14:05:14;23.73;;;11.80;;
76348;SDS011;65172;46.764;15.406;2023-06-22T14:07:39;16.42;;;11.32;;
76348;SDS011;65172;46.764;15.406;2023-06-22T14:10:05;19.63;;;12.00;;
76348;SDS011;65172;46.764;15.406;2023-06-22T14:12:31;20.95;;;11.90;;